NZAA/AKL METAR and TAF weather

Enter ICAO airport designator
Station Type Date Time Source
NZAA METAR 2019/04/24 21:30 UTC NOAA

NZAA 242130Z AUTO 21007KT 9999 SCT024/// 18/16 Q1016 NOSIG


Station Type Date Time Source
NZAA Decoded METAR 2019/04/24 21:30 UTC NOAA

Auckland Airport, New Zealand (NZAA) 37-01S 174-48E 6M
Apr 24, 2019 - 05:30 PM EDT / 2019.04.24 2130 UTC
Wind: from the SSW (210 degrees) at 8 MPH (7 KT):0
Visibility: greater than 7 mile(s):0
Sky conditions: partly cloudy
Temperature: 64 F (18 C)
Dew Point: 60 F (16 C)
Relative Humidity: 88%
Pressure (altimeter): 30.00 in. Hg (1016 hPa)
ob: NZAA 242130Z AUTO 21007KT 9999 SCT024/// 18/16 Q1016 NOSIG
cycle: 21

Station Type Date Time Source
NZAA TAF 2019/04/24 18:10 UTC NOAA

TAF NZAA 241708Z 2418/2518 24012KT 9999 FEW014 SCT030

Example: see airport list